Time;durP1;ratioP1;P1;durP2;ratioP2;P2;SDS_P1;SDS_P2;PMS_P1;PMS_P2;Temp;Humidity;BMP_temperature;BMP_pressure;BME280_temperature;BME280_humidity;BME280_pressure;Samples;Min_cycle;Max_cycle;Signal;HPM_P1;HPM_P2
2022/07/14 06:02:50;;;;;;;4.38;1.60;;;;;;;;;;5122750;23;20064;-59
2022/07/14 06:05:16;;;;;;;3.60;1.83;;;;;;;;;;4880255;29;20037;-60
2022/07/14 06:07:42;;;;;;;7.45;2.50;;;;;;;;;;4880317;29;20488;-61
2022/07/14 06:10:10;;;;;;;4.70;1.90;;;;;;;;;;4880335;29;20037;-59
2022/07/14 06:12:40;;;;;;;5.38;2.28;;;;;;;;;;4880400;29;20029;-59
2022/07/14 06:15:07;;;;;;;7.38;2.42;;;;;;;;;;4879656;29;20033;-59
2022/07/14 06:17:34;;;;;;;4.88;1.60;;;;;;;;;;4880309;29;20037;-59
2022/07/14 06:20:07;;;;;;;5.35;2.10;;;;;;;;;;4878989;29;20033;-59
2022/07/14 06:22:34;;;;;;;8.23;2.60;;;;;;;;;;4878715;29;20025;-58
2022/07/14 06:25:00;;;;;;;7.95;2.88;;;;;;;;;;4878810;29;20032;-59
2022/07/14 06:27:26;;;;;;;5.72;2.85;;;;;;;;;;4879139;29;20036;-58
2022/07/14 06:29:52;;;;;;;4.72;2.30;;;;;;;;;;4878458;29;20041;-58
2022/07/14 06:32:18;;;;;;;4.75;2.53;;;;;;;;;;4878379;29;20037;-58
2022/07/14 06:34:45;;;;;;;6.03;2.83;;;;;;;;;;4878962;29;20033;-61
2022/07/14 06:37:11;;;;;;;4.38;2.63;;;;;;;;;;4878834;29;20679;-59
2022/07/14 06:39:37;;;;;;;6.93;2.97;;;;;;;;;;4876088;29;20033;-58
2022/07/14 06:42:03;;;;;;;7.57;3.25;;;;;;;;;;4879301;29;20037;-60
2022/07/14 06:44:30;;;;;;;6.70;2.90;;;;;;;;;;4879629;29;20553;-59
2022/07/14 06:46:56;;;;;;;10.80;3.97;;;;;;;;;;4879669;29;20040;-61
2022/07/14 06:49:22;;;;;;;13.10;5.82;;;;;;;;;;4879569;29;20029;-58
2022/07/14 06:51:48;;;;;;;15.05;4.50;;;;;;;;;;4878185;29;20045;-63
2022/07/14 06:54:15;;;;;;;11.00;4.18;;;;;;;;;;4879491;29;20032;-61
2022/07/14 06:56:42;;;;;;;7.97;2.92;;;;;;;;;;4886153;29;20395;-59
2022/07/14 06:59:08;;;;;;;9.30;3.08;;;;;;;;;;4886168;29;20367;-58
2022/07/14 07:01:34;;;;;;;5.78;3.67;;;;;;;;;;4886272;29;20454;-59
2022/07/14 07:04:00;;;;;;;11.90;4.60;;;;;;;;;;4879349;29;20041;-58
2022/07/14 07:06:44;;;;;;;9.50;5.47;;;;;;;;;;4879176;29;20063;-63
2022/07/14 07:09:14;;;;;;;8.95;4.15;;;;;;;;;;4883892;29;20104;-60
2022/07/14 07:11:42;;;;;;;14.70;6.35;;;;;;;;;;4891784;29;20131;-59
2022/07/14 07:14:08;;;;;;;8.02;4.97;;;;;;;;;;4891063;29;20036;-59
2022/07/14 07:16:34;;;;;;;12.57;7.65;;;;;;;;;;4887298;29;20493;-58
2022/07/14 07:19:01;;;;;;;13.50;7.88;;;;;;;;;;4886262;29;20025;-57
2022/07/14 07:21:27;;;;;;;9.88;4.72;;;;;;;;;;4883151;29;20517;-57
2022/07/14 07:23:54;;;;;;;10.52;6.47;;;;;;;;;;4880633;29;20390;-57
2022/07/14 07:26:22;;;;;;;11.75;7.03;;;;;;;;;;4878830;29;20052;-58
2022/07/14 07:28:49;;;;;;;8.13;4.70;;;;;;;;;;4878921;29;20107;-58
2022/07/14 07:31:15;;;;;;;7.28;4.13;;;;;;;;;;4878771;29;20084;-58
2022/07/14 07:33:41;;;;;;;7.30;3.28;;;;;;;;;;4878809;29;20029;-59
2022/07/14 07:36:07;;;;;;;13.18;6.40;;;;;;;;;;4878712;29;20108;-59
2022/07/14 07:38:33;;;;;;;7.72;5.25;;;;;;;;;;4878677;29;20037;-59
2022/07/14 07:41:02;;;;;;;5.95;2.95;;;;;;;;;;4878805;29;20448;-59
2022/07/14 07:43:28;;;;;;;8.38;4.38;;;;;;;;;;4878618;29;20113;-61
2022/07/14 07:45:54;;;;;;;8.63;4.78;;;;;;;;;;4878624;29;20029;-58
2022/07/14 07:48:20;;;;;;;8.70;4.97;;;;;;;;;;4878522;29;20033;-58
2022/07/14 07:50:47;;;;;;;11.70;6.00;;;;;;;;;;4878573;29;20048;-59
2022/07/14 07:53:13;;;;;;;9.80;4.20;;;;;;;;;;4878696;29;20022;-57
2022/07/14 07:55:39;;;;;;;8.55;3.72;;;;;;;;;;4886805;29;20096;-58
2022/07/14 07:58:07;;;;;;;7.88;5.07;;;;;;;;;;4887622;29;20434;-57
2022/07/14 08:00:33;;;;;;;10.02;4.70;;;;;;;;;;4885732;29;20025;-60
2022/07/14 08:03:01;;;;;;;8.30;3.85;;;;;;;;;;4884931;29;20049;-57
2022/07/14 08:05:27;;;;;;;10.27;2.85;;;;;;;;;;4888034;29;20037;-60
2022/07/14 08:07:53;;;;;;;6.22;3.22;;;;;;;;;;4875433;29;20029;-59
2022/07/14 08:10:20;;;;;;;8.65;4.20;;;;;;;;;;4884569;29;20408;-58
2022/07/14 08:12:46;;;;;;;7.03;3.05;;;;;;;;;;4885989;29;20032;-59
2022/07/14 08:15:12;;;;;;;10.80;5.78;;;;;;;;;;4887726;29;20021;-60
2022/07/14 08:17:39;;;;;;;7.95;5.00;;;;;;;;;;4891863;29;20112;-59
2022/07/14 08:20:06;;;;;;;9.35;4.15;;;;;;;;;;4886130;29;20600;-59
2022/07/14 08:22:33;;;;;;;12.43;5.35;;;;;;;;;;4887224;29;20036;-59
2022/07/14 08:24:59;;;;;;;17.08;4.68;;;;;;;;;;4895591;29;20029;-58
2022/07/14 08:27:26;;;;;;;20.60;4.50;;;;;;;;;;4889712;29;20028;-58
2022/07/14 08:29:53;;;;;;;13.52;4.50;;;;;;;;;;4887878;29;20029;-58
2022/07/14 08:32:33;;;;;;;10.52;5.40;;;;;;;;;;4883852;29;20056;-60
2022/07/14 08:35:01;;;;;;;10.63;4.22;;;;;;;;;;4886099;29;20033;-57
2022/07/14 08:37:27;;;;;;;14.98;5.75;;;;;;;;;;4880829;29;20021;-58
2022/07/14 08:39:54;;;;;;;14.00;6.47;;;;;;;;;;4881440;29;20025;-60
2022/07/14 08:42:20;;;;;;;11.55;4.55;;;;;;;;;;4877735;29;20037;-58
2022/07/14 08:44:46;;;;;;;14.13;5.38;;;;;;;;;;4886248;29;20029;-59
2022/07/14 08:47:12;;;;;;;14.68;4.90;;;;;;;;;;4881903;29;20029;-61
2022/07/14 08:49:39;;;;;;;10.48;4.75;;;;;;;;;;4877679;29;20115;-60
2022/07/14 08:52:05;;;;;;;15.68;6.22;;;;;;;;;;4880107;29;20546;-61
2022/07/14 08:54:33;;;;;;;18.13;6.70;;;;;;;;;;4895505;29;20037;-61
2022/07/14 08:56:59;;;;;;;15.73;5.45;;;;;;;;;;4886516;29;20032;-60
2022/07/14 08:59:25;;;;;;;11.10;3.83;;;;;;;;;;4882156;29;20029;-60
2022/07/14 09:01:51;;;;;;;7.28;2.55;;;;;;;;;;4886403;29;20044;-59
2022/07/14 09:04:17;;;;;;;13.45;4.25;;;;;;;;;;4888816;29;20037;-60
2022/07/14 09:06:52;;;;;;;44.83;7.03;;;;;;;;;;4885578;29;20104;-60
2022/07/14 09:09:19;;;;;;;41.40;7.80;;;;;;;;;;4888969;29;20029;-60
2022/07/14 09:11:49;;;;;;;15.35;4.40;;;;;;;;;;4891848;29;20044;-59
2022/07/14 09:14:16;;;;;;;28.77;5.82;;;;;;;;;;4891662;29;20033;-61
2022/07/14 09:16:42;;;;;;;39.72;7.20;;;;;;;;;;4896037;29;20033;-60
2022/07/14 09:19:09;;;;;;;14.63;4.18;;;;;;;;;;4892430;29;20482;-59
2022/07/14 09:21:36;;;;;;;11.15;4.00;;;;;;;;;;4887315;29;20059;-61
2022/07/14 09:24:04;;;;;;;18.13;4.63;;;;;;;;;;4895985;29;20396;-60
2022/07/14 09:26:30;;;;;;;13.95;4.15;;;;;;;;;;4899488;29;20052;-59
2022/07/14 09:28:57;;;;;;;27.77;7.18;;;;;;;;;;4900050;29;20481;-60
2022/07/14 09:31:24;;;;;;;23.35;7.72;;;;;;;;;;4899282;29;20052;-60
2022/07/14 09:33:51;;;;;;;31.08;12.10;;;;;;;;;;4899716;29;20092;-60
2022/07/14 09:36:22;;;;;;;23.73;9.23;;;;;;;;;;4889717;29;20100;-59
2022/07/14 09:38:49;;;;;;;13.53;4.27;;;;;;;;;;4892652;29;20426;-61
2022/07/14 09:41:15;;;;;;;15.07;4.28;;;;;;;;;;4882758;29;20481;-62
2022/07/14 09:44:01;;;;;;;17.58;4.60;;;;;;;;;;4880380;29;20067;-60
2022/07/14 09:46:47;;;;;;;10.88;3.40;;;;;;;;;;4880554;29;20037;-60
2022/07/14 09:49:14;;;;;;;19.50;6.13;;;;;;;;;;4880884;29;20040;-61
2022/07/14 09:51:55;;;;;;;9.90;4.75;;;;;;;;;;4880702;29;20053;-61
2022/07/14 09:54:45;;;;;;;13.27;5.00;;;;;;;;;;4880602;29;20029;-59
2022/07/14 09:57:13;;;;;;;13.80;5.00;;;;;;;;;;4878485;29;20820;-60
2022/07/14 09:59:50;;;;;;;18.40;6.13;;;;;;;;;;4877709;29;20214;-62
2022/07/14 10:02:19;;;;;;;16.48;6.05;;;;;;;;;;4861542;29;20477;-60
2022/07/14 10:04:46;;;;;;;35.58;7.20;;;;;;;;;;4868229;29;20057;-68
2022/07/14 10:07:12;;;;;;;12.45;3.85;;;;;;;;;;4867245;29;20029;-61
2022/07/14 10:09:41;;;;;;;10.70;4.38;;;;;;;;;;4869779;29;20500;-60
2022/07/14 10:12:07;;;;;;;17.27;4.80;;;;;;;;;;4862460;29;20127;-60
2022/07/14 10:14:33;;;;;;;13.48;4.93;;;;;;;;;;4859385;29;20402;-60
2022/07/14 10:16:59;;;;;;;10.88;3.17;;;;;;;;;;4859442;29;20037;-59
2022/07/14 10:19:26;;;;;;;10.60;4.63;;;;;;;;;;4858842;29;20034;-61
2022/07/14 10:21:55;;;;;;;11.65;4.55;;;;;;;;;;4859478;29;20124;-59
2022/07/14 10:24:22;;;;;;;13.30;4.75;;;;;;;;;;4859100;29;20150;-61
2022/07/14 10:26:48;;;;;;;9.15;3.58;;;;;;;;;;4877350;29;20035;-60
2022/07/14 10:29:15;;;;;;;8.10;2.10;;;;;;;;;;4877784;29;20109;-60
2022/07/14 10:31:44;;;;;;;8.75;3.22;;;;;;;;;;4876805;29;20131;-61
2022/07/14 10:34:31;;;;;;;3.63;2.10;;;;;;;;;;4879777;29;20532;-60
2022/07/14 10:37:18;;;;;;;7.13;3.25;;;;;;;;;;4892864;29;20063;-60
2022/07/14 10:40:03;;;;;;;12.48;4.45;;;;;;;;;;4858564;29;20410;-59
2022/07/14 10:42:35;;;;;;;10.15;4.40;;;;;;;;;;4858330;29;20199;-60
2022/07/14 10:45:01;;;;;;;;;;;;;;;;;;4859160;29;20098;-59
2022/07/14 10:47:42;;;;;;;7.72;3.70;;;;;;;;;;4858456;29;19920;-60
2022/07/14 10:50:10;;;;;;;11.68;5.47;;;;;;;;;;4858564;29;20068;-60
2022/07/14 10:52:37;;;;;;;13.35;5.53;;;;;;;;;;4858345;29;20577;-60
2022/07/14 10:55:16;;;;;;;13.80;5.15;;;;;;;;;;4851683;29;20502;-60
2022/07/14 10:58:00;;;;;;;11.02;5.35;;;;;;;;;;4840448;29;20053;-60
2022/07/14 11:00:41;;;;;;;15.30;5.90;;;;;;;;;;4840346;29;20044;-60
2022/07/14 11:03:28;;;;;;;8.85;4.60;;;;;;;;;;4839755;29;20050;-61
2022/07/14 11:08:29;;;;;;;8.95;4.47;;;;;;;;;;4840430;29;20034;-60
2022/07/14 11:10:56;;;;;;;17.63;5.40;;;;;;;;;;4840766;29;20088;-61
2022/07/14 11:13:22;;;;;;;12.45;5.28;;;;;;;;;;4856857;29;20037;-61
2022/07/14 11:15:56;;;;;;;9.10;3.60;;;;;;;;;;4860531;29;20102;-61
2022/07/14 11:18:22;;;;;;;8.30;2.60;;;;;;;;;;4888252;29;20863;-61
2022/07/14 11:20:55;;;;;;;12.18;5.45;;;;;;;;;;4889845;29;20029;-61
2022/07/14 11:23:22;;;;;;;17.10;4.55;;;;;;;;;;4897802;29;20441;-60
2022/07/14 11:25:49;;;;;;;10.32;4.00;;;;;;;;;;4897613;29;20031;-60
2022/07/14 11:28:36;;;;;;;36.42;7.53;;;;;;;;;;4885271;29;20523;-61
2022/07/14 11:31:10;;;;;;;16.05;4.43;;;;;;;;;;4891017;29;20064;-60
2022/07/14 11:36:17;;;;;;;16.90;4.95;;;;;;;;;;4897807;29;20522;-60
2022/07/14 11:36:23;;;;;;;16.35;4.68;;;;;;;;;;4889252;29;20460;-62
2022/07/14 11:38:49;;;;;;;10.85;3.08;;;;;;;;;;4884750;29;20039;-60
2022/07/14 11:41:16;;;;;;;17.60;5.78;;;;;;;;;;4881915;29;20486;-62
2022/07/14 11:43:50;;;;;;;17.63;5.28;;;;;;;;;;4887351;29;20080;-60
2022/07/14 11:46:17;;;;;;;8.05;3.35;;;;;;;;;;4890888;29;20788;-61
2022/07/14 11:48:46;;;;;;;6.57;2.78;;;;;;;;;;4882766;29;20115;-60
2022/07/14 11:51:15;;;;;;;3.83;1.52;;;;;;;;;;4879059;29;20045;-61
2022/07/14 11:53:41;;;;;;;12.02;3.17;;;;;;;;;;4886335;29;20484;-61
2022/07/14 11:56:10;;;;;;;6.05;1.83;;;;;;;;;;4888067;29;20043;-61
2022/07/14 11:58:39;;;;;;;5.93;2.17;;;;;;;;;;4885898;29;20024;-61
2022/07/14 12:01:05;;;;;;;7.78;3.17;;;;;;;;;;4885515;29;20115;-61
2022/07/14 12:03:32;;;;;;;10.48;3.47;;;;;;;;;;4879573;29;20071;-62
2022/07/14 12:05:59;;;;;;;6.10;1.80;;;;;;;;;;4890055;29;20093;-61
2022/07/14 12:08:29;;;;;;;5.07;2.30;;;;;;;;;;4886667;29;20067;-61
2022/07/14 12:11:00;;;;;;;3.95;1.80;;;;;;;;;;4896944;29;20037;-61
2022/07/14 12:13:26;;;;;;;6.17;2.87;;;;;;;;;;4893418;29;20029;-61
2022/07/14 12:15:52;;;;;;;8.05;2.90;;;;;;;;;;4896988;29;20033;-62
2022/07/14 12:18:18;;;;;;;9.15;3.22;;;;;;;;;;4896930;29;20038;-62
2022/07/14 12:20:47;;;;;;;4.18;2.03;;;;;;;;;;4887947;29;20033;-62
2022/07/14 12:23:15;;;;;;;8.77;4.57;;;;;;;;;;4887326;29;20064;-60
2022/07/14 12:25:42;;;;;;;10.18;6.15;;;;;;;;;;4885874;29;20021;-60
2022/07/14 12:28:10;;;;;;;6.47;3.10;;;;;;;;;;4885554;29;20100;-64
2022/07/14 12:30:51;;;;;;;5.82;3.42;;;;;;;;;;4884512;29;20044;-60
2022/07/14 12:33:22;;;;;;;7.90;3.05;;;;;;;;;;4881306;29;20052;-60
2022/07/14 12:35:48;;;;;;;3.97;1.50;;;;;;;;;;4882750;29;20029;-60
2022/07/14 12:38:15;;;;;;;9.73;3.75;;;;;;;;;;4885732;29;20028;-61
2022/07/14 12:40:42;;;;;;;3.83;1.20;;;;;;;;;;4877520;29;20037;-61
2022/07/14 12:43:09;;;;;;;6.38;4.18;;;;;;;;;;4889466;29;20083;-61
2022/07/14 12:45:54;;;;;;;4.85;3.25;;;;;;;;;;4896535;29;20028;-63
2022/07/14 12:48:20;;;;;;;7.75;4.05;;;;;;;;;;4896419;29;20107;-62
2022/07/14 12:50:46;;;;;;;3.50;1.70;;;;;;;;;;4896637;29;20478;-61
2022/07/14 12:53:13;;;;;;;3.72;1.33;;;;;;;;;;4896484;29;20032;-62
2022/07/14 12:55:44;;;;;;;4.38;2.08;;;;;;;;;;4896002;29;20025;-62
2022/07/14 12:58:10;;;;;;;5.43;1.42;;;;;;;;;;4895309;29;20032;-61
2022/07/14 13:00:39;;;;;;;6.68;2.67;;;;;;;;;;4895888;29;20116;-61
2022/07/14 13:03:13;;;;;;;4.03;1.90;;;;;;;;;;4895734;29;20052;-62
2022/07/14 13:05:44;;;;;;;5.47;1.83;;;;;;;;;;4895789;29;20040;-61
2022/07/14 13:08:29;;;;;;;3.63;2.05;;;;;;;;;;4895583;29;20503;-61
2022/07/14 13:10:57;;;;;;;4.07;2.53;;;;;;;;;;4894567;29;20378;-61
2022/07/14 13:13:34;;;;;;;5.38;2.53;;;;;;;;;;4896011;29;20020;-61
2022/07/14 13:16:19;;;;;;;6.75;3.08;;;;;;;;;;4896145;29;20064;-61
2022/07/14 13:19:20;;;;;;;5.32;2.63;;;;;;;;;;4895967;29;20097;-61
2022/07/14 13:21:48;;;;;;;5.60;3.20;;;;;;;;;;4856893;29;20138;-61
2022/07/14 13:24:18;;;;;;;7.95;1.88;;;;;;;;;;4855325;29;20441;-62
2022/07/14 13:26:45;;;;;;;5.80;1.60;;;;;;;;;;4850530;29;20423;-61
2022/07/14 13:29:11;;;;;;;2.53;1.20;;;;;;;;;;4855308;29;20034;-62
2022/07/14 13:31:37;;;;;;;5.05;1.70;;;;;;;;;;4854462;29;20046;-63
2022/07/14 13:34:03;;;;;;;3.70;1.77;;;;;;;;;;4855100;29;20025;-62
2022/07/14 13:36:30;;;;;;;4.93;2.03;;;;;;;;;;4854783;29;20038;-61
2022/07/14 13:38:58;;;;;;;3.63;1.90;;;;;;;;;;4854543;29;20430;-61
2022/07/14 13:41:24;;;;;;;4.40;2.13;;;;;;;;;;4850644;29;20038;-61
2022/07/14 13:43:51;;;;;;;6.57;2.22;;;;;;;;;;4854065;29;20187;-61
2022/07/14 13:46:17;;;;;;;7.03;2.78;;;;;;;;;;4854860;29;20029;-61
2022/07/14 13:48:43;;;;;;;3.25;1.40;;;;;;;;;;4855059;29;20045;-61
2022/07/14 13:53:54;;;;;;;5.97;2.50;;;;;;;;;;4853678;29;20079;-61
2022/07/14 13:56:21;;;;;;;3.83;1.50;;;;;;;;;;4883907;29;20060;-61
2022/07/14 13:58:47;;;;;;;6.90;2.33;;;;;;;;;;4895708;29;20036;-61
2022/07/14 14:01:13;;;;;;;6.20;1.92;;;;;;;;;;4895587;29;20084;-61
2022/07/14 14:03:40;;;;;;;3.92;2.20;;;;;;;;;;4895693;29;20051;-61
2022/07/14 14:06:07;;;;;;;5.88;2.33;;;;;;;;;;4895716;29;20039;-61
2022/07/14 14:08:34;;;;;;;2.47;1.52;;;;;;;;;;4895559;29;20024;-60
2022/07/14 14:11:01;;;;;;;5.40;2.50;;;;;;;;;;4898607;29;20044;-61
2022/07/14 14:13:29;;;;;;;5.65;2.33;;;;;;;;;;4899011;29;20033;-61
2022/07/14 14:15:58;;;;;;;7.25;3.55;;;;;;;;;;4898678;29;20036;-62
2022/07/14 14:18:24;;;;;;;6.78;3.10;;;;;;;;;;4889171;29;20458;-61
2022/07/14 14:20:50;;;;;;;5.85;2.90;;;;;;;;;;4888997;29;20025;-62
2022/07/14 14:23:17;;;;;;;5.95;2.58;;;;;;;;;;4887684;29;20061;-61
2022/07/14 14:25:44;;;;;;;8.52;2.65;;;;;;;;;;4889435;29;20033;-60
2022/07/14 14:28:11;;;;;;;8.10;4.30;;;;;;;;;;4888696;29;20044;-61
2022/07/14 14:30:37;;;;;;;11.00;4.72;;;;;;;;;;4888091;29;20032;-63
2022/07/14 14:33:04;;;;;;;9.95;3.75;;;;;;;;;;4886296;29;20392;-61
2022/07/14 14:35:30;;;;;;;5.78;3.13;;;;;;;;;;4888392;29;20029;-61
2022/07/14 14:37:56;;;;;;;8.27;3.80;;;;;;;;;;4890249;29;20025;-62
2022/07/14 14:40:22;;;;;;;4.53;2.63;;;;;;;;;;4898395;29;20589;-61
2022/07/14 14:42:49;;;;;;;9.23;4.05;;;;;;;;;;4898309;29;20027;-61
2022/07/14 14:45:15;;;;;;;6.63;3.80;;;;;;;;;;4898225;29;20032;-61
2022/07/14 14:47:41;;;;;;;6.40;3.15;;;;;;;;;;4893398;29;20029;-61
2022/07/14 14:50:08;;;;;;;5.55;2.63;;;;;;;;;;4879253;29;20045;-61
2022/07/14 14:52:34;;;;;;;14.15;6.35;;;;;;;;;;4883527;29;20084;-60
2022/07/14 14:55:00;;;;;;;4.68;2.13;;;;;;;;;;4898215;29;20048;-62
2022/07/14 14:57:26;;;;;;;8.43;3.60;;;;;;;;;;4898058;29;20369;-60
2022/07/14 14:59:52;;;;;;;5.07;2.90;;;;;;;;;;4897503;29;20056;-60
2022/07/14 15:02:19;;;;;;;5.50;2.67;;;;;;;;;;4896512;29;20515;-61
2022/07/14 15:04:46;;;;;;;6.35;2.33;;;;;;;;;;4879338;29;20036;-61
2022/07/14 15:07:12;;;;;;;6.90;4.43;;;;;;;;;;4883707;29;20051;-60
2022/07/14 15:09:38;;;;;;;5.50;2.53;;;;;;;;;;4897246;29;20040;-61
2022/07/14 15:12:04;;;;;;;8.35;3.15;;;;;;;;;;4898045;29;20120;-61
2022/07/14 15:14:30;;;;;;;5.82;3.65;;;;;;;;;;4892788;29;20037;-60
2022/07/14 15:16:56;;;;;;;11.73;6.60;;;;;;;;;;4879688;29;20036;-60
2022/07/14 15:19:22;;;;;;;6.47;2.15;;;;;;;;;;4890626;29;20025;-60
2022/07/14 15:21:48;;;;;;;8.18;3.30;;;;;;;;;;4879758;29;20025;-61
2022/07/14 15:24:15;;;;;;;7.95;2.30;;;;;;;;;;4881211;29;20025;-61
2022/07/14 15:26:41;;;;;;;5.85;2.58;;;;;;;;;;4878275;29;20045;-61
2022/07/14 15:29:07;;;;;;;8.02;3.45;;;;;;;;;;4878926;29;20021;-61
2022/07/14 15:31:33;;;;;;;8.07;4.13;;;;;;;;;;4882712;29;20124;-60
2022/07/14 15:33:59;;;;;;;5.18;2.55;;;;;;;;;;4878897;29;20029;-59
2022/07/14 15:36:31;;;;;;;6.15;3.90;;;;;;;;;;4894291;29;20029;-60
2022/07/14 15:41:42;;;;;;;6.00;4.00;;;;;;;;;;4897025;29;20071;-61
2022/07/14 15:44:08;;;;;;;5.18;2.78;;;;;;;;;;4897247;29;20036;-61
2022/07/14 15:46:34;;;;;;;5.75;2.80;;;;;;;;;;4897126;29;20036;-60
2022/07/14 15:49:00;;;;;;;10.80;6.40;;;;;;;;;;4897054;29;20043;-60
2022/07/14 15:51:27;;;;;;;8.63;4.60;;;;;;;;;;4887816;29;20128;-61
2022/07/14 15:53:53;;;;;;;6.07;3.25;;;;;;;;;;4880374;29;20040;-60
2022/07/14 15:56:19;;;;;;;8.05;4.70;;;;;;;;;;4882095;29;20033;-61
2022/07/14 15:58:45;;;;;;;7.25;4.40;;;;;;;;;;4889542;29;20028;-60
2022/07/14 16:01:11;;;;;;;8.52;3.80;;;;;;;;;;4886389;29;20051;-61
2022/07/14 16:03:37;;;;;;;8.95;4.75;;;;;;;;;;4884896;29;20121;-60
2022/07/14 16:06:05;;;;;;;6.75;3.60;;;;;;;;;;4886678;29;20032;-60
2022/07/14 16:08:31;;;;;;;8.95;4.13;;;;;;;;;;4886977;29;20037;-60
2022/07/14 16:10:57;;;;;;;8.40;4.97;;;;;;;;;;4884426;29;20043;-61
2022/07/14 16:13:23;;;;;;;7.88;3.85;;;;;;;;;;4883204;29;20041;-61
2022/07/14 16:15:50;;;;;;;8.82;4.68;;;;;;;;;;4886380;29;20430;-60
2022/07/14 16:18:16;;;;;;;13.48;6.75;;;;;;;;;;4884787;29;20065;-59
2022/07/14 16:20:42;;;;;;;6.30;3.60;;;;;;;;;;4884301;29;20035;-60
2022/07/14 16:23:08;;;;;;;11.00;6.22;;;;;;;;;;4889650;29;20028;-62
2022/07/14 16:25:34;;;;;;;10.43;5.10;;;;;;;;;;4896558;29;20032;-60
2022/07/14 16:28:00;;;;;;;6.32;3.70;;;;;;;;;;4897110;29;20037;-59
2022/07/14 16:30:27;;;;;;;8.85;4.60;;;;;;;;;;4896428;29;20473;-60
2022/07/14 16:32:53;;;;;;;9.73;4.05;;;;;;;;;;4895762;29;20045;-61
2022/07/14 16:35:20;;;;;;;13.85;7.85;;;;;;;;;;4896762;29;20028;-61
2022/07/14 16:37:46;;;;;;;7.78;3.25;;;;;;;;;;4896087;29;20623;-60
2022/07/14 16:40:12;;;;;;;9.18;5.15;;;;;;;;;;4896540;29;20029;-60
2022/07/14 16:42:38;;;;;;;8.35;5.07;;;;;;;;;;4896426;29;20024;-61
2022/07/14 16:45:05;;;;;;;9.38;4.65;;;;;;;;;;4896536;29;20032;-61
2022/07/14 16:47:31;;;;;;;7.22;3.90;;;;;;;;;;4896265;29;20028;-60
2022/07/14 16:50:00;;;;;;;9.52;4.97;;;;;;;;;;4895854;29;20096;-61
2022/07/14 16:52:28;;;;;;;9.63;4.95;;;;;;;;;;4896139;29;20059;-60
2022/07/14 16:54:54;;;;;;;9.38;3.22;;;;;;;;;;4896160;29;20071;-61
2022/07/14 16:57:20;;;;;;;7.70;4.60;;;;;;;;;;4896142;29;20028;-61
2022/07/14 16:59:47;;;;;;;8.68;3.88;;;;;;;;;;4896266;29;20029;-61
2022/07/14 17:02:14;;;;;;;9.07;4.85;;;;;;;;;;4895195;29;20036;-61
2022/07/14 17:04:40;;;;;;;7.18;4.57;;;;;;;;;;4896111;29;20123;-60
2022/07/14 17:07:06;;;;;;;8.48;4.72;;;;;;;;;;4896141;29;20036;-61
2022/07/14 17:09:32;;;;;;;10.77;5.97;;;;;;;;;;4895732;29;20046;-60
2022/07/14 17:11:58;;;;;;;8.00;4.80;;;;;;;;;;4896011;29;20564;-59
2022/07/14 17:14:24;;;;;;;5.57;3.70;;;;;;;;;;4895817;29;20548;-61
2022/07/14 17:16:50;;;;;;;7.28;3.30;;;;;;;;;;4895552;29;20047;-61
2022/07/14 17:19:16;;;;;;;12.82;7.03;;;;;;;;;;4895655;29;20032;-61
2022/07/14 17:21:43;;;;;;;6.50;3.60;;;;;;;;;;4895992;29;20028;-60
2022/07/14 17:24:09;;;;;;;13.55;6.78;;;;;;;;;;4895947;29;20476;-60
2022/07/14 17:26:38;;;;;;;8.30;4.38;;;;;;;;;;4895565;29;20033;-63
2022/07/14 17:29:05;;;;;;;9.23;4.72;;;;;;;;;;4895652;29;20520;-62
2022/07/14 17:31:31;;;;;;;10.13;4.57;;;;;;;;;;4894085;29;20532;-62
2022/07/14 17:33:57;;;;;;;9.93;5.65;;;;;;;;;;4896002;29;20040;-62
2022/07/14 17:36:23;;;;;;;6.05;3.30;;;;;;;;;;4895860;29;20040;-62
2022/07/14 17:38:50;;;;;;;9.38;4.85;;;;;;;;;;4895886;29;20100;-62
2022/07/14 17:41:16;;;;;;;9.70;4.60;;;;;;;;;;4895278;29;20405;-61
2022/07/14 17:43:42;;;;;;;8.10;4.25;;;;;;;;;;4896806;29;20025;-62
2022/07/14 17:46:08;;;;;;;7.68;3.47;;;;;;;;;;4899590;29;20402;-61
2022/07/14 17:48:34;;;;;;;8.88;4.82;;;;;;;;;;4899012;29;20020;-60
2022/07/14 17:53:59;;;;;;;9.20;4.32;;;;;;;;;;4877987;29;20037;-61
2022/07/14 17:56:25;;;;;;;8.73;5.10;;;;;;;;;;4878095;29;20108;-62
2022/07/14 17:58:51;;;;;;;11.10;6.50;;;;;;;;;;4878202;29;20077;-61
2022/07/14 18:01:18;;;;;;;11.05;6.28;;;;;;;;;;4877651;29;20025;-63
2022/07/14 18:03:44;;;;;;;12.85;7.53;;;;;;;;;;4877394;29;20105;-62
2022/07/14 18:06:11;;;;;;;8.82;5.30;;;;;;;;;;4877842;29;20056;-63
2022/07/14 18:08:37;;;;;;;17.15;6.90;;;;;;;;;;4877871;29;20070;-61
2022/07/14 18:11:03;;;;;;;9.00;5.07;;;;;;;;;;4877611;29;20502;-61
2022/07/14 18:13:29;;;;;;;12.85;7.00;;;;;;;;;;4877755;29;20021;-60
2022/07/14 18:15:55;;;;;;;10.32;6.68;;;;;;;;;;4877402;29;20037;-61
2022/07/14 18:18:21;;;;;;;8.45;5.00;;;;;;;;;;4877668;29;20044;-61
2022/07/14 18:20:47;;;;;;;12.43;5.00;;;;;;;;;;4877786;29;20041;-61
2022/07/14 18:23:13;;;;;;;8.40;3.90;;;;;;;;;;4877801;29;20033;-61
2022/07/14 18:25:39;;;;;;;7.50;3.40;;;;;;;;;;4877903;29;20041;-60
2022/07/14 18:28:05;;;;;;;8.60;4.75;;;;;;;;;;4877226;29;20040;-62
2022/07/14 18:30:31;;;;;;;9.23;4.70;;;;;;;;;;4896388;29;20139;-61
2022/07/14 18:32:57;;;;;;;8.10;4.82;;;;;;;;;;4898319;29;20039;-61
2022/07/14 18:35:23;;;;;;;7.07;3.60;;;;;;;;;;4898603;29;20033;-61
2022/07/14 18:37:49;;;;;;;8.15;3.80;;;;;;;;;;4898093;29;20031;-60
2022/07/14 18:40:15;;;;;;;11.57;4.22;;;;;;;;;;4898201;29;20389;-61
2022/07/14 18:42:41;;;;;;;10.38;3.72;;;;;;;;;;4898594;29;20075;-61
2022/07/14 18:47:53;;;;;;;10.52;6.30;;;;;;;;;;4898174;29;20035;-61
2022/07/14 18:50:21;;;;;;;9.68;4.32;;;;;;;;;;4897864;29;20481;-61
2022/07/14 18:52:47;;;;;;;12.75;4.70;;;;;;;;;;4898194;29;20120;-59
2022/07/14 18:55:13;;;;;;;11.43;5.95;;;;;;;;;;4897287;29;20031;-63
2022/07/14 18:57:40;;;;;;;14.70;5.78;;;;;;;;;;4897681;29;20025;-59
2022/07/14 19:00:08;;;;;;;13.75;5.90;;;;;;;;;;4898044;29;20222;-59
2022/07/14 19:02:35;;;;;;;19.67;6.43;;;;;;;;;;4897751;29;20462;-59
2022/07/14 19:05:02;;;;;;;9.73;4.45;;;;;;;;;;4897592;29;20052;-59
2022/07/14 19:07:28;;;;;;;11.27;4.22;;;;;;;;;;4897850;29;20563;-61
2022/07/14 19:09:54;;;;;;;9.40;5.25;;;;;;;;;;4897948;29;20027;-62
2022/07/14 19:12:20;;;;;;;5.50;3.60;;;;;;;;;;4897821;29;20041;-61
2022/07/14 19:14:47;;;;;;;9.68;4.60;;;;;;;;;;4897876;29;20035;-60
2022/07/14 19:17:13;;;;;;;8.73;4.55;;;;;;;;;;4897132;29;20146;-61
2022/07/14 19:19:39;;;;;;;7.28;4.00;;;;;;;;;;4897682;29;20021;-61
2022/07/14 19:22:05;;;;;;;8.95;5.03;;;;;;;;;;4897913;29;20031;-61
2022/07/14 19:24:31;;;;;;;8.35;3.60;;;;;;;;;;4897307;29;20025;-61
2022/07/14 19:26:57;;;;;;;8.23;3.88;;;;;;;;;;4897707;29;20028;-60
2022/07/14 19:29:24;;;;;;;7.63;4.18;;;;;;;;;;4897727;29;20032;-61
2022/07/14 19:31:50;;;;;;;9.32;3.47;;;;;;;;;;4897308;29;20517;-60
2022/07/14 19:34:17;;;;;;;9.00;3.97;;;;;;;;;;4897537;29;20041;-61
2022/07/14 19:36:43;;;;;;;12.00;4.13;;;;;;;;;;4897211;29;20040;-60
2022/07/14 19:39:09;;;;;;;7.97;4.07;;;;;;;;;;4896569;29;20447;-60
2022/07/14 19:41:35;;;;;;;7.38;3.67;;;;;;;;;;4897202;29;20032;-61
2022/07/14 19:44:01;;;;;;;7.70;3.40;;;;;;;;;;4897295;29;20040;-61
2022/07/14 19:46:27;;;;;;;7.82;3.63;;;;;;;;;;4897364;29;20029;-61
2022/07/14 19:48:53;;;;;;;10.73;5.18;;;;;;;;;;4896983;29;20024;-61
2022/07/14 19:51:19;;;;;;;11.00;4.70;;;;;;;;;;4896811;29;20271;-61
2022/07/14 19:53:46;;;;;;;7.90;4.05;;;;;;;;;;4896853;29;20393;-62
2022/07/14 19:56:13;;;;;;;10.10;4.80;;;;;;;;;;4896977;29;20024;-61
2022/07/14 19:58:39;;;;;;;8.95;4.28;;;;;;;;;;4896221;29;20056;-61
2022/07/14 20:01:05;;;;;;;10.68;5.40;;;;;;;;;;4896614;29;20032;-61
2022/07/14 20:03:32;;;;;;;9.27;4.15;;;;;;;;;;4896319;29;20067;-60
2022/07/14 20:05:59;;;;;;;8.65;4.65;;;;;;;;;;4896327;29;20393;-62
2022/07/14 20:08:26;;;;;;;8.35;4.68;;;;;;;;;;4895417;29;20036;-61
2022/07/14 20:10:52;;;;;;;7.20;3.53;;;;;;;;;;4896660;29;20036;-60
2022/07/14 20:13:19;;;;;;;8.80;4.30;;;;;;;;;;4896880;29;20029;-60
2022/07/14 20:15:47;;;;;;;9.25;4.03;;;;;;;;;;4896945;29;20056;-60
2022/07/14 20:18:13;;;;;;;8.98;4.40;;;;;;;;;;4896619;29;20028;-60
2022/07/14 20:20:40;;;;;;;7.20;4.22;;;;;;;;;;4896774;29;20028;-60
2022/07/14 20:23:06;;;;;;;7.70;3.85;;;;;;;;;;4896459;29;20045;-61
2022/07/14 20:25:32;;;;;;;9.02;4.88;;;;;;;;;;4896716;29;20474;-61
2022/07/14 20:33:28;;;;;;;11.10;3.95;;;;;;;;;;4896499;29;20051;-61
2022/07/14 20:35:56;;;;;;;6.95;3.85;;;;;;;;;;4896652;29;20029;-60
2022/07/14 20:38:22;;;;;;;7.13;3.60;;;;;;;;;;4896696;29;20068;-61
2022/07/14 20:40:48;;;;;;;8.43;3.50;;;;;;;;;;4895817;29;20484;-59
2022/07/14 20:43:15;;;;;;;8.18;3.80;;;;;;;;;;4895913;29;20037;-60
2022/07/14 20:45:41;;;;;;;10.45;3.70;;;;;;;;;;4896550;29;20051;-59
2022/07/14 20:48:07;;;;;;;6.72;3.67;;;;;;;;;;4896555;29;20028;-60
2022/07/14 20:50:34;;;;;;;5.05;3.00;;;;;;;;;;4896045;29;20029;-60
2022/07/14 20:53:00;;;;;;;7.38;3.50;;;;;;;;;;4896630;29;20040;-61
2022/07/14 20:55:26;;;;;;;7.00;3.80;;;;;;;;;;4896579;29;20504;-60
2022/07/14 20:57:52;;;;;;;8.88;4.45;;;;;;;;;;4896319;29;20075;-60
2022/07/14 21:00:18;;;;;;;10.98;6.20;;;;;;;;;;4896455;29;20370;-58
2022/07/14 21:02:44;;;;;;;6.43;3.42;;;;;;;;;;4895785;29;20063;-60